Latest Weather Observations for Mount Ginini

IDN60901

Issued at 6:01 pm EST Tuesday 1 September 2015 (issued every 10 minutes, with the page automatically refreshed every 10 minutes)

About weather observations | Map of Canberra area stations | Latest observations for Canberra area | Other Formats
Station Details ID: 070349 Name: MOUNT GININI AWS Lat: -35.53 Lon: 148.77 Height: 1760.0 m
Data from the previous 72 hours. | See also: Recent months at Mount Ginini
Date/Time
EST
Tmp

°C
App
Tmp
°C
Dew
Point
°C
Rel
Hum
%
Delta-T

°C
Wind Press
QNH
hPa
Press
MSL
hPa
Rain
since
9 am
mm
Dir
 
Spd
km/h
Gust
km/h
Spd
kts
Gust
kts
01/06:00pm 1.2 -4.1 -3.5 71 1.8 SW 15 20 8 11 - - -
01/05:30pm 2.7 -2.2 -3.8 62 2.5 SW 13 20 7 11 - - 0.0
01/05:00pm 4.2 -0.7 -3.3 58 2.9 SW 13 24 7 13 - - 0.0
01/04:30pm 5.0 -0.6 -5.9 45 4.0 SW 15 28 8 15 - - 0.0
01/04:00pm 6.2 1.0 -6.1 41 4.6 WSW 13 26 7 14 - - 0.0
01/03:30pm 6.5 0.8 -7.1 37 5.0 WSW 15 28 8 15 - - 0.0
01/03:00pm 8.0 3.4 -4.4 41 4.9 WSW 11 26 6 14 - - 0.0
01/02:30pm 7.9 3.2 -4.8 40 5.0 WSW 11 22 6 12 - - 0.0
01/02:00pm 7.4 2.3 -5.6 39 5.0 SW 13 26 7 14 - - 0.0
01/01:30pm 7.6 3.4 -4.2 43 4.7 WSW 9 24 5 13 - - 0.0
01/01:00pm 7.5 2.9 -1.4 53 3.8 WSW 13 24 7 13 - - 0.0
01/12:30pm 7.0 2.7 -5.0 42 4.7 W 9 24 5 13 - - 0.0
01/12:00pm 6.4 0.7 -7.6 36 5.1 WSW 15 30 8 16 - - 0.0
01/11:30am 6.2 1.6 -3.7 49 3.9 W 11 22 6 12 - - 0.0
01/11:00am 5.8 0.6 -6.7 40 4.6 SW 13 22 7 12 - - 0.0
01/10:30am 4.7 -0.6 -7.1 42 4.2 SSW 13 28 7 15 - - 0.0
01/10:00am 3.7 -2.4 -7.7 43 4.2 SSW 17 24 9 13 - - 0.0
01/09:30am 3.5 -3.5 -12.0 31 5.0 SSW 20 35 11 19 - - 0.0
01/09:00am 2.1 -5.7 -13.2 31 4.7 SSW 24 35 13 19 - - 0.0
01/08:30am 1.2 -6.7 -13.6 32 4.4 SSW 24 35 13 19 - - 0.0
01/08:00am 0.7 -7.1 -13.3 34 4.1 SSW 24 37 13 20 - - 0.0
01/07:30am -0.4 -8.4 -10.6 46 3.1 SSW 26 39 14 21 - - 0.0
01/07:00am -1.3 -9.8 -7.2 64 1.9 SSW 30 44 16 24 - - 0.0
01/06:30am -2.0 -10.6 -3.9 87 0.6 SSW 32 46 17 25 - - 0.0
01/06:00am -2.7 -10.1 -3.4 95 0.1 SSW 26 37 14 20 - - 0.0
01/05:30am -2.7 -9.7 -3.2 96 0.1 SSW 24 33 13 18 - - 0.0
01/05:00am -2.7 -9.3 -3.1 97 0.0 SSW 22 30 12 16 - - 0.0
01/04:30am -2.5 -9.4 -2.9 97 0.0 SW 24 37 13 20 - - 0.0
01/04:00am -2.8 -9.8 -3.1 98 0.0 SW 24 37 13 20 - - 0.0
01/03:30am -3.1 -9.3 -3.4 98 0.0 SW 20 32 11 17 - - 0.0
01/03:00am -3.0 -9.0 -3.3 98 0.0 SW 19 30 10 16 - - 0.0
01/02:30am -3.3 -9.0 -3.6 98 0.0 SW 17 24 9 13 - - 0.0
01/02:00am -3.0 -8.3 -3.3 98 0.0 SW 15 22 8 12 - - 0.0
01/01:30am -2.4 -8.0 -2.7 98 0.0 WSW 17 24 9 13 - - 0.0
01/01:00am -2.1 -7.6 -2.4 98 0.0 SW 17 28 9 15 - - 0.0
01/12:30am -1.8 -7.9 -2.2 97 0.1 SW 20 30 11 16 - - 0.0
01/12:00am -1.8 -8.3 -2.1 98 0.0 SW 22 32 12 17 - - 0.0
 
Date/Time
EST
Tmp

°C
App
Tmp
°C
Dew
Point
°C
Rel
Hum
%
Delta-T

°C
Wind Press
QNH
hPa
Press
MSL
hPa
Rain
since
9 am
mm
Dir
 
Spd
km/h
Gust
km/h
Spd
kts
Gust
kts
31/11:30pm -1.9 -7.4 -2.2 98 0.0 SW 17 26 9 14 - - 0.0
31/11:00pm -1.9 -6.3 -2.2 98 0.0 SSW 11 15 6 8 - - 0.0
31/10:30pm -1.8 -6.5 -2.1 98 0.0 SSW 13 19 7 10 - - 0.0
31/10:00pm -1.6 -6.3 -1.9 98 0.0 SSW 13 19 7 10 - - 0.0
31/09:30pm -1.6 -7.1 -2.0 97 0.1 SSW 17 22 9 12 - - 0.0
31/09:00pm -1.7 -6.8 -2.3 96 0.1 SSW 15 22 8 12 - - 0.0
31/08:30pm -1.6 -6.7 -2.3 95 0.2 SW 15 20 8 11 - - 0.0
31/08:00pm -1.3 -6.4 -2.1 94 0.2 SW 15 19 8 10 - - 0.0
31/07:30pm -1.2 -5.9 -2.0 94 0.2 WSW 13 19 7 10 - - 0.0
31/07:00pm -0.6 -5.2 -1.4 94 0.3 WSW 13 24 7 13 - - 0.0
31/06:30pm 0.0 -4.6 -0.8 94 0.3 WSW 13 22 7 12 - - 0.0
31/06:00pm 0.5 -4.0 -0.6 92 0.4 WSW 13 22 7 12 - - 0.0
31/05:30pm 1.5 -3.2 -2.1 77 1.4 WSW 13 24 7 13 - - 0.0
31/05:00pm 2.9 -2.7 -2.6 67 2.2 WSW 17 30 9 16 - - 0.0
31/04:30pm 3.8 -1.4 -3.0 61 2.7 WSW 15 28 8 15 - - 0.0
31/04:00pm 5.0 0.9 -2.8 57 3.1 WSW 9 20 5 11 - - 0.0
31/03:30pm 6.0 1.2 -2.6 54 3.5 W 13 24 7 13 - - 0.0
31/03:00pm 6.3 2.1 -3.9 48 4.0 W 9 20 5 11 - - 0.0
31/02:30pm 6.0 1.8 -3.9 49 3.9 WSW 9 22 5 12 - - 0.0
31/02:00pm 6.1 2.0 -3.0 52 3.7 WSW 9 22 5 12 - - 0.0
31/01:30pm 5.9 1.3 -4.3 48 4.0 WSW 11 22 6 12 - - 0.0
31/01:00pm 5.6 1.3 -5.1 46 4.1 W 9 20 5 11 - - 0.0
31/12:30pm 5.8 1.6 -4.3 48 3.9 W 9 20 5 11 - - 0.0
31/12:00pm 4.6 0.7 -4.9 50 3.6 WSW 7 17 4 9 - - 0.0
31/11:30am 4.0 0.1 -4.9 52 3.3 SW 7 15 4 8 - - 0.0
31/11:00am 3.2 -1.5 -5.0 55 3.0 SW 11 20 6 11 - - 0.0
31/10:30am 2.9 -2.0 -3.6 62 2.5 SSW 13 20 7 11 - - 0.0
31/10:00am 1.6 -3.9 -5.8 58 2.7 SSW 15 26 8 14 - - 0.0
31/09:30am 0.9 -4.3 -5.8 61 2.4 SW 13 20 7 11 - - 0.0
31/09:00am 0.3 -4.7 -4.3 71 1.7 SW 13 20 7 11 - - 0.4
31/08:30am -0.5 -5.7 -2.9 84 0.9 SW 15 22 8 12 - - 0.4
31/08:00am -1.0 -6.1 -2.0 93 0.3 SW 15 24 8 13 - - 0.4
31/07:30am -1.4 -6.9 -2.1 95 0.2 SW 17 24 9 13 - - 0.4
31/07:00am -2.2 -8.5 -5.5 78 1.0 SW 19 26 10 14 - - 0.4
31/06:30am -1.9 -8.0 -7.8 64 1.8 SW 17 24 9 13 - - 0.4
31/06:00am -1.9 -8.1 -8.8 59 2.1 SW 17 26 9 14 - - 0.4
31/05:30am -2.2 -8.1 -10.5 53 2.4 SW 15 24 8 13 - - 0.4
31/05:00am -2.2 -7.4 -10.5 53 2.4 SW 11 19 6 10 - - 0.4
31/04:30am -2.0 -6.8 -11.0 50 2.6 SW 9 15 5 8 - - 0.4
31/04:00am -1.8 -6.6 -11.1 49 2.7 SW 9 13 5 7 - - 0.4
31/03:30am -1.3 -5.6 -12.2 43 3.1 SW 6 9 3 5 - - 0.4
31/03:00am -1.3 -5.6 -11.7 45 3.0 WNW 6 9 3 5 - - 0.4
31/02:30am -0.7 -4.3 -12.3 41 3.4 W 2 4 1 2 - - 0.4
31/02:00am -0.3 -3.9 -11.9 41 3.5 SE 2 4 1 2 - - 0.4
31/01:30am 0.0 -3.5 -11.6 41 3.5 SSE 2 6 1 3 - - 0.4
31/01:00am -0.4 -4.7 -10.9 45 3.2 S 6 7 3 4 - - 0.4
31/12:30am -0.9 -5.7 -10.0 50 2.8 S 9 13 5 7 - - 0.4
31/12:00am -1.4 -6.4 -7.7 62 2.0 SSW 11 13 6 7 - - 0.4
 
Date/Time
EST
Tmp

°C
App
Tmp
°C
Dew
Point
°C
Rel
Hum
%
Delta-T

°C
Wind Press
QNH
hPa
Press
MSL
hPa
Rain
since
9 am
mm
Dir
 
Spd
km/h
Gust
km/h
Spd
kts
Gust
kts
30/11:30pm -1.6 -5.9 -2.0 97 0.1 SW 11 15 6 8 - - 0.4
30/11:00pm -1.3 -5.6 -1.6 98 0.0 SSW 11 17 6 9 - - 0.4
30/10:30pm -0.9 -5.1 -1.2 98 0.1 SSW 11 17 6 9 - - 0.4
30/10:00pm -0.4 -4.2 -0.7 98 0.1 SSW 9 13 5 7 - - 0.4
30/09:30pm 0.0 -4.1 -0.3 98 0.1 SSW 11 17 6 9 - - 0.4
30/09:00pm 0.0 -4.1 -0.3 98 0.1 SSW 11 19 6 10 - - 0.4
30/08:30pm 0.1 -3.6 -0.2 98 0.1 SSW 9 11 5 6 - - 0.4
30/08:00pm 0.2 -2.9 -0.1 98 0.1 SSE 6 9 3 5 - - 0.4
30/07:30pm 0.2 -2.6 -0.1 98 0.1 SSE 4 6 2 3 - - 0.4
30/07:00pm 0.5 -2.8 0.2 98 0.1 SSE 7 11 4 6 - - 0.4
30/06:30pm 1.1 -2.1 0.8 98 0.1 SSE 7 11 4 6 - - 0.2
30/06:00pm 1.0 -2.0 0.6 97 0.2 SE 6 11 3 6 - - 0.2
30/05:30pm 1.8 -0.7 1.4 97 0.2 SSE 4 11 2 6 - - 0.2
30/05:00pm 2.1 0.0 1.7 97 0.2 SSW 2 6 1 3 - - 0.0
30/04:30pm 2.6 0.2 2.2 97 0.2 W 4 11 2 6 - - 0.0
30/04:00pm 2.5 0.8 1.8 95 0.3 CALM 0 2 0 1 - - 0.0
30/03:30pm 2.8 0.7 1.9 94 0.4 NW 2 6 1 3 - - 0.0
30/03:00pm 3.7 1.7 2.1 89 0.7 SSW 2 7 1 4 - - 0.0
30/02:30pm 3.4 0.6 -0.6 75 1.7 E 4 11 2 6 - - 0.0
30/02:00pm 5.3 2.1 -0.7 65 2.5 SSW 6 13 3 7 - - 0.0
30/01:30pm 4.6 1.4 -0.8 68 2.3 SW 6 11 3 6 - - 0.0
30/01:00pm 4.1 0.7 -0.5 72 1.9 SW 7 11 4 6 - - 0.0
30/12:30pm 3.8 0.5 0.1 77 1.6 WSW 7 17 4 9 - - 0.0
30/12:00pm 4.6 1.7 1.3 79 1.5 W 6 15 3 8 - - 0.0
30/11:30am 3.8 1.3 1.4 84 1.1 WSW 4 9 2 5 - - 0.0
30/11:00am 3.1 0.9 1.2 87 0.8 S 2 6 1 3 - - 0.0
30/10:30am 2.3 0.1 1.3 93 0.4 SSW 2 7 1 4 - - 0.0
30/10:00am 2.8 0.6 1.3 90 0.6 SE 2 6 1 3 - - 0.0
30/09:30am 1.3 -1.4 0.4 94 0.4 SE 4 7 2 4 - - 0.0
30/09:00am 0.2 -3.0 -0.6 94 0.3 SE 6 11 3 6 - - 0.0
30/08:30am 0.3 -2.5 -0.4 95 0.3 ESE 4 11 2 6 - - 0.0
30/08:00am -0.2 -4.0 -0.9 95 0.3 SSE 9 15 5 8 - - 0.0
30/07:30am -0.3 -4.9 -1.0 95 0.3 SSE 13 20 7 11 - - 0.0
30/07:00am -1.6 -6.4 -2.2 96 0.1 SSE 13 19 7 10 - - 0.0
30/06:30am -1.4 -5.0 -1.8 97 0.1 SSE 7 15 4 8 - - 0.0
30/06:00am -2.8 -6.9 -3.2 97 0.0 S 9 13 5 7 - - 0.0
30/05:30am -3.1 -6.9 -3.6 96 0.0 S 7 13 4 7 - - 0.0
30/05:00am -2.1 -5.6 -2.6 96 0.1 SSE 6 9 3 5 - - 0.0
30/04:30am -1.9 -7.5 -2.5 96 0.1 S 17 28 9 15 - - 0.0
30/04:00am -2.3 -7.5 -2.8 96 0.1 S 15 22 8 12 - - 0.0
30/03:30am -2.1 -6.9 -2.5 97 0.0 S 13 24 7 13 - - 0.0
30/03:00am -2.0 -6.8 -2.4 97 0.1 SSE 13 24 7 13 - - 0.0
30/02:30am -2.6 -7.5 -3.0 97 0.0 S 13 19 7 10 - - 0.0
30/02:00am -2.4 -7.2 -2.8 97 0.0 S 13 28 7 15 - - 0.0
30/01:30am -2.7 -7.6 -3.0 98 0.0 S 13 19 7 10 - - 0.0
30/01:00am -2.6 -6.7 -3.0 97 0.0 S 9 15 5 8 - - 0.0
30/12:30am -2.5 -8.1 -2.8 98 0.0 S 17 26 9 14 - - 0.0
30/12:00am -2.4 -8.4 -2.7 98 0.0 S 19 26 10 14 - - 0.0
 
Date/Time
EST
Tmp

°C
App
Tmp
°C
Dew
Point
°C
Rel
Hum
%
Delta-T

°C
Wind Press
QNH
hPa
Press
MSL
hPa
Rain
since
9 am
mm
Dir
 
Spd
km/h
Gust
km/h
Spd
kts
Gust
kts
29/11:30pm -2.5 -9.4 -2.8 98 0.0 SSW 24 35 13 19 - - 0.0
29/11:00pm -2.4 -9.3 -2.7 98 0.0 SSW 24 35 13 19 - - 0.0
29/10:30pm -2.3 -9.6 -2.6 98 0.0 SSW 26 37 14 20 - - 0.0
29/10:00pm -2.1 -9.0 -2.4 98 0.0 SSW 24 35 13 19 - - 0.0
29/09:30pm -1.9 -9.1 -2.2 98 0.0 SSW 26 35 14 19 - - 0.0
29/09:00pm -1.9 -9.1 -2.3 97 0.1 SW 26 37 14 20 - - 0.0
29/08:30pm -2.0 -9.3 -2.6 96 0.1 SSW 26 39 14 21 - - 0.0
29/08:00pm -2.4 -9.4 -3.1 95 0.1 SW 24 33 13 18 - - 0.0
29/07:30pm -2.2 -8.4 -3.0 94 0.2 SW 20 30 11 16 - - 0.0
29/07:00pm -2.0 -7.6 -2.8 94 0.2 SW 17 30 9 16 - - 0.0
29/06:30pm -1.8 -7.4 -2.9 92 0.3 SW 17 28 9 15 - - 0.0

Latest Capital City Observations: Canberra | Sydney | Melbourne | Brisbane | Adelaide | Perth | Hobart | Darwin

Other Formats:

Comma delimited format used in spreadsheet applications
http://www.bom.gov.au/fwo/IDN60903/IDN60903.95925.axf

JavaScript Object Notation format (JSON) in row-major order
http://www.bom.gov.au/fwo/IDN60903/IDN60903.95925.json